Time;durP1;ratioP1;P1;durP2;ratioP2;P2;SDS_P1;SDS_P2;PMS_P1;PMS_P2;Temp;Humidity;BMP_temperature;BMP_pressure;BME280_temperature;BME280_humidity;BME280_pressure;Samples;Min_cycle;Max_cycle;Signal;HPM_P1;HPM_P2
2022/08/30 00:01:05;;;;;;;4.32;2.83;;;18.60;99.90;;;;;;5032501;28;20018;-71
2022/08/30 00:03:53;;;;;;;3.80;2.88;;;18.60;99.90;;;;;;5013585;28;20434;-70
2022/08/30 00:06:20;;;;;;;6.00;3.13;;;18.60;99.90;;;;;;5022237;28;20022;-70
2022/08/30 00:08:47;;;;;;;4.13;2.90;;;18.60;99.90;;;;;;5038527;28;20029;-69
2022/08/30 00:11:20;;;;;;;5.38;3.30;;;18.50;99.90;;;;;;5029076;28;20401;-69
2022/08/30 00:13:48;;;;;;;4.63;2.90;;;18.50;99.90;;;;;;5030978;28;20079;-69
2022/08/30 00:16:15;;;;;;;3.47;2.95;;;18.50;99.90;;;;;;5028740;28;20121;-69
2022/08/30 00:18:42;;;;;;;3.45;2.78;;;18.50;99.90;;;;;;5031323;28;20029;-69
2022/08/30 00:21:09;;;;;;;4.30;3.47;;;18.40;99.90;;;;;;5023375;28;20109;-68
2022/08/30 00:23:35;;;;;;;3.88;3.10;;;18.40;99.90;;;;;;5024527;28;20069;-69
2022/08/30 00:26:01;;;;;;;4.40;3.28;;;18.40;99.90;;;;;;5025821;28;20117;-70
2022/08/30 00:28:27;;;;;;;3.63;2.95;;;18.40;99.90;;;;;;5008315;28;20140;-69
2022/08/30 00:30:53;;;;;;;4.57;3.50;;;18.30;99.90;;;;;;5033760;28;20036;-69
2022/08/30 00:33:20;;;;;;;4.90;3.50;;;18.40;99.90;;;;;;5034250;28;20033;-69
2022/08/30 00:35:45;;;;;;;4.32;2.70;;;18.30;99.90;;;;;;5032648;28;20072;-69
2022/08/30 00:38:12;;;;;;;4.55;3.38;;;18.30;99.90;;;;;;5027526;28;20064;-70
2022/08/30 00:40:40;;;;;;;3.90;3.30;;;18.40;99.90;;;;;;5032228;28;20075;-70
2022/08/30 00:43:11;;;;;;;4.53;3.65;;;18.30;99.90;;;;;;5034642;28;20033;-70
2022/08/30 00:45:37;;;;;;;4.38;3.50;;;18.40;99.90;;;;;;5032346;28;20112;-69
2022/08/30 00:48:05;;;;;;;4.53;3.50;;;18.40;99.90;;;;;;5024372;28;20112;-69
2022/08/30 00:50:38;;;;;;;4.22;2.95;;;18.30;99.90;;;;;;5045525;28;20376;-69
2022/08/30 00:53:09;;;;;;;4.82;3.67;;;18.30;99.90;;;;;;5027706;28;20037;-69
2022/08/30 00:55:35;;;;;;;6.95;3.55;;;18.30;99.90;;;;;;5023739;28;20049;-69
2022/08/30 00:58:05;;;;;;;4.05;3.30;;;18.30;99.90;;;;;;5019005;28;20030;-69
2022/08/30 01:00:31;;;;;;;3.75;3.20;;;18.30;99.90;;;;;;5028862;28;20388;-69
2022/08/30 01:02:57;;;;;;;4.10;3.10;;;18.30;99.90;;;;;;5034131;28;20045;-69
2022/08/30 01:05:22;;;;;;;5.82;3.63;;;18.40;99.90;;;;;;5029195;28;20026;-69
2022/08/30 01:07:48;;;;;;;4.55;3.53;;;18.40;99.90;;;;;;5034383;28;20473;-69
2022/08/30 01:10:15;;;;;;;4.05;3.28;;;18.40;99.90;;;;;;5029736;28;20029;-69
2022/08/30 01:12:43;;;;;;;4.10;3.55;;;18.30;99.90;;;;;;5039950;28;20227;-70
2022/08/30 01:15:13;;;;;;;4.70;3.40;;;18.40;99.90;;;;;;5023241;28;20200;-71
2022/08/30 01:17:40;;;;;;;4.75;3.72;;;18.40;99.90;;;;;;5012879;28;20362;-71
2022/08/30 01:20:14;;;;;;;5.10;3.35;;;18.40;99.90;;;;;;5013701;28;20495;-71
2022/08/30 01:22:50;;;;;;;4.53;3.33;;;18.30;99.90;;;;;;5033398;28;20033;-70
2022/08/30 01:25:26;;;;;;;5.10;4.00;;;18.40;99.90;;;;;;5026706;28;20049;-70
2022/08/30 01:28:03;;;;;;;4.95;4.05;;;18.30;99.90;;;;;;5023738;28;20033;-70
2022/08/30 01:30:29;;;;;;;4.80;3.92;;;18.30;99.90;;;;;;5013384;28;20032;-70
2022/08/30 01:33:01;;;;;;;6.07;4.22;;;18.30;99.90;;;;;;5033186;28;20041;-69
2022/08/30 01:35:28;;;;;;;5.07;3.92;;;18.30;99.90;;;;;;5027474;28;20113;-70
2022/08/30 01:37:54;;;;;;;5.55;4.43;;;18.30;99.90;;;;;;5022780;28;20115;-70
2022/08/30 01:40:20;;;;;;;5.65;4.13;;;18.30;99.90;;;;;;5034615;28;20037;-70
2022/08/30 01:42:45;;;;;;;6.22;4.22;;;18.30;99.90;;;;;;5034371;28;20033;-70
2022/08/30 01:45:12;;;;;;;5.25;4.15;;;18.20;99.90;;;;;;5027790;28;20036;-70
2022/08/30 01:47:39;;;;;;;4.88;4.03;;;18.20;99.90;;;;;;5030572;28;20048;-70
2022/08/30 01:50:06;;;;;;;7.75;4.50;;;18.20;99.90;;;;;;5030577;28;20034;-69
2022/08/30 01:52:32;;;;;;;5.32;4.50;;;18.20;99.90;;;;;;5035243;28;20396;-70
2022/08/30 01:54:57;;;;;;;5.95;4.70;;;18.20;99.90;;;;;;5012131;28;20029;-70
2022/08/30 01:57:25;;;;;;;6.43;4.78;;;18.20;99.90;;;;;;5017817;28;20030;-70
2022/08/30 01:59:51;;;;;;;6.00;4.28;;;18.20;99.90;;;;;;4994224;28;20053;-70
2022/08/30 02:02:22;;;;;;;7.13;4.75;;;18.20;99.90;;;;;;5022794;28;20433;-70
2022/08/30 02:04:48;;;;;;;5.85;4.70;;;18.20;99.90;;;;;;5029602;28;20033;-70
2022/08/30 02:07:14;;;;;;;6.63;4.70;;;18.20;99.90;;;;;;5033073;28;20067;-70
2022/08/30 02:09:40;;;;;;;5.90;4.43;;;18.20;99.90;;;;;;5029554;28;20065;-70
2022/08/30 02:12:06;;;;;;;7.50;5.22;;;18.20;99.90;;;;;;5021382;28;20034;-70
2022/08/30 02:14:35;;;;;;;6.65;4.88;;;18.20;99.90;;;;;;5026930;28;20053;-70
2022/08/30 02:17:04;;;;;;;6.85;4.70;;;18.20;99.90;;;;;;5014474;28;20381;-70
2022/08/30 02:19:29;;;;;;;6.25;5.18;;;18.10;99.90;;;;;;5023940;28;20033;-70
2022/08/30 02:21:55;;;;;;;5.38;4.63;;;18.20;99.90;;;;;;5030849;28;20104;-70
2022/08/30 02:24:21;;;;;;;6.50;5.28;;;18.10;99.90;;;;;;5033031;28;20694;-70
2022/08/30 02:26:47;;;;;;;6.07;5.45;;;18.20;99.90;;;;;;5029621;28;20136;-70
2022/08/30 02:29:12;;;;;;;11.32;5.07;;;18.20;99.90;;;;;;5017766;28;20049;-70
2022/08/30 02:31:38;;;;;;;9.82;5.95;;;18.20;99.90;;;;;;5013994;28;20380;-70
2022/08/30 02:34:04;;;;;;;7.35;5.57;;;18.20;99.90;;;;;;5031525;28;20392;-70
2022/08/30 02:36:29;;;;;;;6.85;5.47;;;18.10;99.90;;;;;;5021127;28;20054;-70
2022/08/30 02:38:55;;;;;;;7.57;5.93;;;18.10;99.90;;;;;;5045504;28;20056;-70
2022/08/30 02:41:22;;;;;;;6.22;5.55;;;18.00;99.90;;;;;;5032811;28;20021;-70
2022/08/30 02:43:49;;;;;;;7.35;5.60;;;18.00;99.90;;;;;;5043156;28;20061;-70
2022/08/30 02:46:16;;;;;;;8.02;5.65;;;17.90;99.90;;;;;;5030537;28;20478;-70
2022/08/30 02:48:43;;;;;;;6.85;5.82;;;17.90;99.90;;;;;;5025879;28;20025;-69
2022/08/30 02:51:11;;;;;;;6.25;4.85;;;17.90;99.90;;;;;;5023405;28;20034;-70
2022/08/30 02:53:37;;;;;;;7.20;5.70;;;17.90;99.90;;;;;;5026121;28;20041;-70
2022/08/30 02:56:03;;;;;;;8.15;6.20;;;17.90;99.90;;;;;;5032196;28;20056;-70
2022/08/30 02:58:29;;;;;;;9.05;6.63;;;17.90;99.90;;;;;;5022735;28;20110;-69
2022/08/30 03:00:55;;;;;;;6.28;5.45;;;17.90;99.90;;;;;;5032080;28;20468;-70
2022/08/30 03:03:21;;;;;;;7.43;5.40;;;17.90;99.90;;;;;;5017934;28;20041;-69
2022/08/30 03:05:46;;;;;;;5.80;5.18;;;17.90;99.90;;;;;;5015284;28;20032;-69
2022/08/30 03:08:12;;;;;;;7.68;5.30;;;17.90;99.90;;;;;;5017721;28;20036;-69
2022/08/30 03:10:37;;;;;;;7.90;6.03;;;17.90;99.90;;;;;;5015365;28;20113;-69
2022/08/30 03:13:06;;;;;;;8.10;5.95;;;17.90;99.90;;;;;;5014776;28;20037;-69
2022/08/30 03:15:33;;;;;;;10.02;5.82;;;17.80;99.90;;;;;;5031531;28;20033;-69
2022/08/30 03:17:58;;;;;;;6.88;5.57;;;17.80;99.90;;;;;;5013174;28;20495;-69
2022/08/30 03:20:24;;;;;;;6.88;5.47;;;17.70;99.90;;;;;;5044509;28;20096;-69
2022/08/30 03:22:50;;;;;;;8.30;5.35;;;17.70;99.90;;;;;;5018314;28;20034;-69
2022/08/30 03:25:17;;;;;;;8.88;5.65;;;17.70;99.90;;;;;;5013629;28;20121;-69
2022/08/30 03:27:42;;;;;;;7.30;5.40;;;17.70;99.90;;;;;;5011316;28;20021;-69
2022/08/30 03:30:09;;;;;;;6.85;5.78;;;17.60;99.90;;;;;;5041623;28;20035;-69
2022/08/30 03:32:34;;;;;;;6.63;5.85;;;17.60;99.90;;;;;;5040652;28;20072;-69
2022/08/30 03:35:00;;;;;;;7.15;6.20;;;17.60;99.90;;;;;;5034986;28;20453;-69
2022/08/30 03:37:26;;;;;;;6.38;5.63;;;17.60;99.90;;;;;;5021869;28;20032;-68
2022/08/30 03:39:53;;;;;;;9.25;5.70;;;17.60;99.90;;;;;;5023778;28;20080;-68
2022/08/30 03:42:19;;;;;;;6.45;5.47;;;17.60;99.90;;;;;;5017660;28;20560;-69
2022/08/30 03:44:45;;;;;;;7.65;6.28;;;17.50;99.90;;;;;;5026280;28;20030;-69
2022/08/30 03:47:10;;;;;;;6.32;5.47;;;17.50;99.90;;;;;;5015763;28;20025;-69
2022/08/30 03:49:36;;;;;;;6.82;5.80;;;17.50;99.90;;;;;;5026219;28;20021;-69
2022/08/30 03:52:02;;;;;;;6.88;5.82;;;17.50;99.90;;;;;;5019067;28;20032;-69
2022/08/30 03:54:28;;;;;;;6.95;5.60;;;17.50;99.90;;;;;;5021665;28;20056;-69
2022/08/30 03:56:53;;;;;;;8.32;5.88;;;17.50;99.90;;;;;;5020267;28;20497;-69
2022/08/30 03:59:19;;;;;;;7.70;5.60;;;17.50;99.90;;;;;;5028487;28;20400;-70
2022/08/30 04:01:46;;;;;;;8.15;6.05;;;17.60;99.90;;;;;;5011501;28;20034;-69
2022/08/30 04:04:12;;;;;;;7.47;5.32;;;17.60;99.90;;;;;;5032216;28;20033;-69
2022/08/30 04:06:38;;;;;;;7.93;5.97;;;17.60;99.90;;;;;;5015587;28;20057;-68
2022/08/30 04:09:03;;;;;;;7.55;5.93;;;17.60;99.90;;;;;;5032146;28;20060;-69
2022/08/30 04:11:29;;;;;;;6.55;5.43;;;17.60;99.90;;;;;;5015728;28;20040;-69
2022/08/30 04:13:55;;;;;;;8.90;5.72;;;17.60;99.90;;;;;;5030424;28;20041;-69
2022/08/30 04:16:22;;;;;;;7.28;5.80;;;17.60;99.90;;;;;;5017473;28;20026;-69
2022/08/30 04:18:48;;;;;;;6.65;5.15;;;17.60;99.90;;;;;;5029650;28;20033;-69
2022/08/30 04:21:14;;;;;;;11.13;6.18;;;17.60;99.90;;;;;;5027701;28;20430;-69
2022/08/30 04:23:40;;;;;;;7.45;6.00;;;17.50;99.90;;;;;;5030564;28;20477;-69
2022/08/30 04:26:06;;;;;;;7.85;6.25;;;17.50;99.90;;;;;;5022327;28;20045;-69
2022/08/30 04:28:32;;;;;;;7.00;5.90;;;17.50;99.90;;;;;;5033147;28;20049;-69
2022/08/30 04:30:58;;;;;;;5.85;4.78;;;17.50;99.90;;;;;;5034789;28;20415;-69
2022/08/30 04:33:23;;;;;;;6.80;5.47;;;17.50;99.90;;;;;;5028079;28;21230;-69
2022/08/30 04:35:49;;;;;;;7.32;6.13;;;17.60;99.90;;;;;;5012528;28;20492;-69
2022/08/30 04:38:16;;;;;;;7.18;6.10;;;17.50;99.90;;;;;;5015151;28;20034;-68
2022/08/30 04:40:47;;;;;;;6.47;5.70;;;17.50;99.90;;;;;;5036640;28;20395;-69
2022/08/30 04:43:13;;;;;;;7.65;6.15;;;17.60;99.90;;;;;;5004800;28;20026;-69
2022/08/30 04:45:39;;;;;;;6.63;5.43;;;17.60;99.90;;;;;;5035686;28;20067;-69
2022/08/30 04:48:06;;;;;;;9.10;5.72;;;17.60;99.90;;;;;;5020556;28;20037;-69
2022/08/30 04:50:32;;;;;;;7.47;6.43;;;17.60;99.90;;;;;;5026501;28;20048;-69
2022/08/30 04:52:58;;;;;;;7.88;6.43;;;17.60;99.90;;;;;;5014165;28;20548;-69
2022/08/30 04:55:24;;;;;;;8.07;6.15;;;17.60;99.90;;;;;;5032212;28;20025;-69
2022/08/30 04:57:50;;;;;;;8.60;6.72;;;17.60;99.90;;;;;;5032474;28;20472;-69
2022/08/30 05:00:19;;;;;;;7.93;6.25;;;17.60;99.90;;;;;;5028549;28;20036;-69
2022/08/30 05:02:45;;;;;;;9.02;6.93;;;17.60;99.90;;;;;;5036487;28;20021;-69
2022/08/30 05:07:56;;;;;;;;;;;17.60;99.90;;;;;;5032348;28;20119;-70
2022/08/30 05:10:22;;;;;;;7.50;6.13;;;17.60;99.90;;;;;;5033397;28;19913;-69
2022/08/30 05:12:48;;;;;;;7.85;6.30;;;17.60;99.90;;;;;;5029294;28;20132;-69
2022/08/30 05:15:14;;;;;;;9.70;7.45;;;17.60;99.90;;;;;;5029705;28;20586;-72
2022/08/30 05:17:40;;;;;;;7.30;5.78;;;17.60;99.90;;;;;;5030624;28;20108;-70
2022/08/30 05:20:07;;;;;;;11.23;6.15;;;17.60;99.90;;;;;;5032132;28;20063;-70
2022/08/30 05:22:35;;;;;;;7.65;6.32;;;17.60;99.90;;;;;;5043087;28;20435;-70
2022/08/30 05:25:01;;;;;;;7.95;6.63;;;17.70;99.90;;;;;;5037755;28;20460;-70
2022/08/30 05:27:26;;;;;;;8.60;6.55;;;17.70;99.90;;;;;;5040164;28;20063;-70
2022/08/30 05:29:52;;;;;;;6.95;5.93;;;17.70;99.90;;;;;;5040560;28;20045;-70
2022/08/30 05:32:17;;;;;;;9.10;6.95;;;17.80;99.90;;;;;;5027554;28;20045;-70
2022/08/30 05:34:43;;;;;;;7.40;6.15;;;17.90;99.90;;;;;;5027069;28;20100;-71
2022/08/30 05:37:09;;;;;;;8.38;6.72;;;17.90;99.90;;;;;;5028126;28;20384;-70
2022/08/30 05:39:34;;;;;;;7.05;6.30;;;17.90;99.90;;;;;;5030273;28;20121;-70
2022/08/30 05:42:00;;;;;;;7.65;6.13;;;18.00;99.90;;;;;;5034768;28;20053;-70
2022/08/30 05:44:26;;;;;;;8.25;6.80;;;18.00;99.90;;;;;;5025460;28;20041;-70
2022/08/30 05:46:51;;;;;;;7.70;6.47;;;18.00;99.90;;;;;;5024144;28;20036;-69
2022/08/30 05:49:17;;;;;;;7.47;6.10;;;18.00;99.90;;;;;;5024946;28;20025;-70
2022/08/30 05:51:43;;;;;;;9.35;6.82;;;18.00;99.90;;;;;;5030077;28;20030;-70
2022/08/30 05:54:09;;;;;;;8.63;6.55;;;18.10;99.90;;;;;;5030267;28;20499;-69
2022/08/30 05:56:37;;;;;;;7.07;5.57;;;18.10;99.90;;;;;;5046135;28;20021;-69
2022/08/30 05:59:05;;;;;;;7.70;6.30;;;18.20;99.90;;;;;;5027298;28;20033;-70
2022/08/30 06:01:34;;;;;;;7.05;6.20;;;18.20;99.90;;;;;;5035620;28;20098;-69
2022/08/30 06:04:02;;;;;;;9.55;6.72;;;18.30;99.90;;;;;;5028007;28;20029;-69
2022/08/30 06:06:28;;;;;;;8.38;6.53;;;18.30;99.90;;;;;;5033480;28;20025;-70
2022/08/30 06:08:54;;;;;;;7.90;5.93;;;18.40;99.90;;;;;;5016119;28;20037;-69
2022/08/30 06:11:22;;;;;;;9.13;6.47;;;18.40;99.90;;;;;;5021925;28;20476;-69
2022/08/30 06:13:49;;;;;;;8.07;6.35;;;18.50;99.90;;;;;;5011345;28;20148;-69
2022/08/30 06:16:17;;;;;;;9.43;6.97;;;18.50;99.90;;;;;;5019648;28;20061;-70
2022/08/30 06:18:43;;;;;;;10.07;6.80;;;18.60;99.90;;;;;;5023193;28;20040;-70
2022/08/30 06:21:19;;;;;;;8.55;6.55;;;18.60;99.90;;;;;;5046310;28;20033;-70
2022/08/30 06:23:45;;;;;;;8.25;6.80;;;18.70;99.90;;;;;;5035425;28;20276;-70
2022/08/30 06:26:11;;;;;;;10.07;7.40;;;18.70;99.90;;;;;;5013709;28;20087;-71
2022/08/30 06:28:37;;;;;;;8.77;6.53;;;18.80;99.90;;;;;;5023776;28;20514;-71
2022/08/30 06:31:08;;;;;;;8.88;6.70;;;18.90;99.90;;;;;;5006514;28;20026;-73
2022/08/30 06:33:36;;;;;;;8.55;6.90;;;19.00;99.90;;;;;;5026810;28;20087;-72
2022/08/30 06:36:07;;;;;;;9.52;7.82;;;19.00;99.90;;;;;;5019551;28;20034;-72
2022/08/30 06:38:33;;;;;;;8.55;7.00;;;19.00;99.90;;;;;;5027966;28;20061;-72
2022/08/30 06:40:58;;;;;;;9.18;7.70;;;19.10;99.90;;;;;;5016949;28;20064;-72
2022/08/30 06:43:24;;;;;;;10.45;7.60;;;19.20;99.90;;;;;;5021620;28;20026;-71
2022/08/30 06:45:49;;;;;;;10.27;7.35;;;19.20;99.90;;;;;;5023197;28;20022;-71
2022/08/30 06:48:15;;;;;;;9.40;7.88;;;19.30;99.90;;;;;;5029861;28;20132;-72
2022/08/30 06:50:41;;;;;;;10.10;7.78;;;19.30;99.90;;;;;;5025076;28;20021;-74
2022/08/30 06:53:07;;;;;;;9.90;8.35;;;19.40;99.90;;;;;;5028917;28;20034;-73
2022/08/30 06:55:33;;;;;;;9.40;6.72;;;19.50;99.90;;;;;;5021640;28;20037;-72
2022/08/30 06:58:02;;;;;;;8.43;6.82;;;19.50;99.90;;;;;;5025098;28;20045;-71
2022/08/30 07:00:29;;;;;;;11.63;8.25;;;19.50;99.90;;;;;;5032532;28;20029;-74
2022/08/30 07:02:54;;;;;;;9.40;7.20;;;19.60;99.90;;;;;;5022388;28;20028;-72
2022/08/30 07:05:23;;;;;;;10.25;7.78;;;19.60;99.90;;;;;;5021214;28;20032;-73
2022/08/30 07:07:52;;;;;;;9.50;7.63;;;19.70;99.90;;;;;;5031541;28;20030;-73
2022/08/30 07:10:18;;;;;;;11.23;7.65;;;19.70;99.90;;;;;;5009911;28;20033;-72
2022/08/30 07:12:43;;;;;;;12.52;8.05;;;19.70;99.90;;;;;;5013142;28;20140;-73
2022/08/30 07:15:10;;;;;;;12.65;8.73;;;19.70;99.90;;;;;;5001035;28;20422;-72
2022/08/30 07:20:23;;;;;;;8.75;7.13;;;19.80;99.90;;;;;;5016832;28;20412;-73
2022/08/30 07:22:48;;;;;;;7.70;6.68;;;19.80;99.90;;;;;;5027113;28;20037;-70
2022/08/30 07:25:15;;;;;;;9.52;7.53;;;19.80;99.90;;;;;;5022312;28;20741;-74
2022/08/30 07:27:56;;;;;;;9.43;7.13;;;19.90;99.90;;;;;;5020963;28;20468;-77
2022/08/30 07:30:22;;;;;;;10.40;8.02;;;20.00;99.90;;;;;;5020807;28;20060;-72
2022/08/30 07:32:48;;;;;;;11.40;7.82;;;20.10;99.90;;;;;;5008502;28;20030;-73
2022/08/30 07:35:14;;;;;;;10.00;8.00;;;20.10;99.90;;;;;;5020006;28;20033;-73
2022/08/30 07:37:40;;;;;;;11.18;8.30;;;20.20;99.90;;;;;;5023733;28;20030;-73
2022/08/30 07:40:06;;;;;;;10.88;8.13;;;20.20;99.90;;;;;;5026214;28;20029;-72
2022/08/30 07:42:32;;;;;;;11.18;8.40;;;20.30;99.90;;;;;;5030005;28;20061;-72
2022/08/30 07:44:57;;;;;;;11.43;6.95;;;20.30;99.90;;;;;;5015580;28;20058;-72
2022/08/30 07:47:23;;;;;;;8.15;6.82;;;20.30;99.90;;;;;;5020312;28;20030;-73
2022/08/30 07:49:48;;;;;;;7.85;6.80;;;20.30;99.90;;;;;;5008246;28;20113;-72
2022/08/30 07:52:15;;;;;;;7.97;6.03;;;20.40;99.90;;;;;;4999963;28;20484;-73
2022/08/30 07:54:42;;;;;;;7.97;6.05;;;20.40;99.90;;;;;;5017177;28;20091;-73
2022/08/30 07:57:08;;;;;;;7.68;6.03;;;20.40;99.90;;;;;;5030657;28;20030;-69
2022/08/30 07:59:34;;;;;;;15.35;6.95;;;20.40;99.90;;;;;;5029204;28;20083;-68
2022/08/30 08:01:59;;;;;;;9.60;6.35;;;20.50;99.90;;;;;;5030323;28;20048;-68
2022/08/30 08:04:25;;;;;;;9.40;6.05;;;20.50;99.90;;;;;;5029154;28;20060;-69
2022/08/30 08:06:50;;;;;;;8.98;6.95;;;20.50;99.90;;;;;;5031431;28;20021;-69
2022/08/30 08:09:16;;;;;;;7.60;6.60;;;20.50;99.90;;;;;;5024068;28;20040;-68
2022/08/30 08:11:44;;;;;;;9.32;7.15;;;20.50;99.90;;;;;;5030528;28;20033;-69
2022/08/30 08:14:10;;;;;;;7.88;6.10;;;20.40;99.90;;;;;;5024891;28;20129;-68
2022/08/30 08:16:36;;;;;;;9.38;6.32;;;20.50;99.90;;;;;;5012949;28;20117;-69
2022/08/30 08:19:07;;;;;;;7.88;6.25;;;20.50;99.90;;;;;;5025818;28;20033;-69
2022/08/30 08:21:35;;;;;;;6.10;5.45;;;20.50;99.90;;;;;;5028283;28;20047;-69
2022/08/30 08:24:01;;;;;;;7.22;5.40;;;20.50;99.90;;;;;;5024572;28;20480;-69
2022/08/30 08:26:27;;;;;;;8.32;5.38;;;20.50;99.90;;;;;;5020585;28;20026;-68
2022/08/30 08:28:52;;;;;;;6.57;4.88;;;20.40;99.90;;;;;;5022044;28;20083;-69
2022/08/30 08:31:22;;;;;;;7.50;5.35;;;20.40;99.90;;;;;;5003559;28;20029;-68
2022/08/30 08:33:48;;;;;;;6.18;5.00;;;20.40;99.90;;;;;;5018495;28;20129;-69
2022/08/30 08:36:14;;;;;;;5.00;3.33;;;20.40;99.90;;;;;;5030496;28;20120;-69
2022/08/30 08:38:40;;;;;;;6.22;3.30;;;20.50;99.90;;;;;;5016732;28;20030;-69
2022/08/30 08:41:09;;;;;;;4.60;3.05;;;20.50;99.90;;;;;;5030714;28;20279;-69
2022/08/30 08:43:36;;;;;;;4.15;3.22;;;20.60;99.80;;;;;;5014659;28;20472;-68
2022/08/30 08:46:26;;;;;;;6.88;3.72;;;20.60;99.70;;;;;;5037477;28;20038;-69
2022/08/30 08:48:55;;;;;;;6.05;3.90;;;20.70;99.80;;;;;;5029186;28;20044;-68
2022/08/30 08:54:37;;;;;;;5.00;3.92;;;20.90;99.40;;;;;;5028408;28;20438;-69
2022/08/30 08:57:04;;;;;;;4.03;3.42;;;21.00;99.20;;;;;;5014370;28;20410;-68
2022/08/30 08:59:29;;;;;;;3.97;3.03;;;21.10;98.90;;;;;;5029749;28;20038;-68
2022/08/30 09:02:00;;;;;;;4.32;2.50;;;21.10;98.80;;;;;;5033810;28;20096;-71
2022/08/30 09:04:32;;;;;;;3.17;2.40;;;21.10;98.60;;;;;;5035045;28;20082;-70
2022/08/30 09:07:03;;;;;;;4.97;2.55;;;21.20;98.80;;;;;;5034008;28;20037;-70
2022/08/30 09:09:33;;;;;;;4.95;2.65;;;21.20;98.40;;;;;;5023117;28;20025;-70
2022/08/30 09:11:58;;;;;;;3.28;2.22;;;21.20;98.40;;;;;;5024582;28;20037;-69
2022/08/30 09:14:29;;;;;;;3.05;2.20;;;21.20;98.20;;;;;;5022723;28;20037;-70
2022/08/30 09:17:01;;;;;;;3.60;2.22;;;21.20;98.40;;;;;;5032095;28;20412;-70
2022/08/30 09:19:48;;;;;;;4.28;3.05;;;21.30;98.40;;;;;;5031490;28;20029;-70
2022/08/30 09:22:36;;;;;;;3.47;2.22;;;21.40;98.40;;;;;;5014325;28;20037;-71
2022/08/30 09:25:22;;;;;;;4.88;2.50;;;21.50;98.30;;;;;;5029515;28;20033;-71
2022/08/30 09:27:50;;;;;;;4.88;2.08;;;21.50;97.80;;;;;;5028362;28;20033;-71
2022/08/30 09:30:25;;;;;;;3.13;1.67;;;21.50;97.50;;;;;;5008782;28;20363;-70
2022/08/30 09:32:51;;;;;;;3.30;1.70;;;21.60;97.40;;;;;;5015557;28;20036;-71
2022/08/30 09:35:39;;;;;;;3.20;1.50;;;21.50;97.50;;;;;;5028682;28;20025;-71
2022/08/30 09:38:06;;;;;;;3.05;1.80;;;21.50;97.20;;;;;;4994452;28;20042;-70
2022/08/30 09:40:34;;;;;;;2.20;1.45;;;21.50;97.50;;;;;;5024145;28;20034;-71
2022/08/30 09:43:10;;;;;;;2.35;1.42;;;21.40;97.30;;;;;;5019282;28;20029;-71
2022/08/30 09:45:39;;;;;;;1.73;1.40;;;21.40;97.20;;;;;;5025961;28;20048;-71
2022/08/30 09:48:25;;;;;;;2.42;1.55;;;21.40;97.10;;;;;;5026420;28;20080;-72
2022/08/30 09:51:12;;;;;;;3.05;1.90;;;21.30;97.10;;;;;;5030294;28;20033;-70
2022/08/30 09:53:52;;;;;;;2.97;1.90;;;21.30;97.20;;;;;;5013076;28;20136;-72
2022/08/30 09:56:50;;;;;;;3.55;2.03;;;21.30;97.40;;;;;;5020516;28;20395;-71
2022/08/30 09:59:34;;;;;;;3.95;2.60;;;21.30;97.50;;;;;;5020615;28;20049;-71
2022/08/30 10:02:10;;;;;;;3.58;2.10;;;21.30;97.40;;;;;;5011451;28;20113;-71
2022/08/30 10:04:57;;;;;;;2.88;1.67;;;21.30;97.60;;;;;;5008941;28;20108;-71
2022/08/30 10:07:53;;;;;;;2.25;1.70;;;21.40;97.40;;;;;;5032484;28;20034;-70
2022/08/30 10:10:47;;;;;;;6.60;2.50;;;21.40;97.40;;;;;;5028619;28;20120;-71
2022/08/30 10:13:37;;;;;;;2.13;1.40;;;21.50;97.30;;;;;;5030468;28;20044;-70
2022/08/30 10:16:27;;;;;;;2.10;1.40;;;21.60;97.40;;;;;;5021278;28;20053;-70
2022/08/30 10:19:16;;;;;;;2.80;1.75;;;21.70;97.00;;;;;;5031542;28;20091;-71
2022/08/30 10:21:52;;;;;;;6.53;1.40;;;21.70;97.00;;;;;;5016830;28;20137;-70
2022/08/30 10:24:23;;;;;;;1.63;1.20;;;21.80;96.50;;;;;;5026914;28;20029;-69
2022/08/30 10:27:04;;;;;;;2.08;1.42;;;21.80;96.50;;;;;;5026265;28;20033;-70
2022/08/30 10:29:42;;;;;;;1.60;1.30;;;21.90;96.20;;;;;;5011590;28;20042;-71
2022/08/30 10:32:20;;;;;;;3.75;1.63;;;22.00;96.20;;;;;;5014108;28;20026;-70
2022/08/30 10:34:53;;;;;;;1.15;1.05;;;22.10;96.20;;;;;;5025355;28;20030;-71
2022/08/30 10:37:24;;;;;;;1.87;1.30;;;22.10;95.90;;;;;;5032041;28;20034;-71
2022/08/30 10:39:53;;;;;;;1.85;1.45;;;22.20;96.00;;;;;;5025160;28;20033;-70
2022/08/30 10:42:32;;;;;;;1.63;1.15;;;22.30;95.80;;;;;;5032714;28;20060;-70
2022/08/30 10:45:03;;;;;;;2.83;1.60;;;22.40;95.80;;;;;;5031471;28;20029;-69
2022/08/30 10:47:31;;;;;;;4.72;1.80;;;22.40;95.20;;;;;;5030477;28;20022;-69
2022/08/30 10:50:11;;;;;;;2.67;1.70;;;22.40;95.30;;;;;;5006221;28;20037;-69
2022/08/30 10:52:56;;;;;;;7.75;1.92;;;22.50;95.10;;;;;;5012443;28;20065;-69
2022/08/30 10:55:27;;;;;;;2.45;1.50;;;22.50;94.90;;;;;;5024126;28;20041;-69
2022/08/30 10:58:02;;;;;;;2.90;2.00;;;22.60;94.70;;;;;;5029256;28;20033;-69
2022/08/30 11:00:44;;;;;;;4.07;1.50;;;22.60;94.70;;;;;;5025735;28;20076;-69
2022/08/30 11:03:16;;;;;;;2.20;1.65;;;22.60;94.70;;;;;;5029931;28;20499;-69
2022/08/30 11:05:57;;;;;;;1.98;1.50;;;22.60;94.40;;;;;;5030851;28;20060;-69
2022/08/30 11:09:07;;;;;;;1.45;1.27;;;22.60;94.40;;;;;;5030899;28;20107;-69
2022/08/30 11:12:02;;;;;;;3.03;1.77;;;22.70;94.80;;;;;;5027958;28;20029;-70
2022/08/30 11:14:29;;;;;;;2.70;1.42;;;22.70;94.70;;;;;;5005264;28;20042;-69
2022/08/30 11:16:59;;;;;;;1.80;1.40;;;22.80;94.00;;;;;;5012019;28;20033;-69
2022/08/30 11:19:33;;;;;;;3.88;1.67;;;22.90;93.90;;;;;;5012265;28;20588;-69
2022/08/30 11:22:27;;;;;;;2.60;1.58;;;23.00;93.60;;;;;;5017832;28;20033;-69
2022/08/30 11:25:11;;;;;;;2.50;1.40;;;23.10;93.50;;;;;;5013013;28;20196;-69
2022/08/30 11:27:52;;;;;;;2.55;1.50;;;23.20;93.50;;;;;;5014120;28;20032;-69
2022/08/30 11:30:24;;;;;;;3.40;1.52;;;23.30;92.90;;;;;;5004233;28;20061;-69
2022/08/30 11:33:11;;;;;;;1.83;1.30;;;23.40;93.00;;;;;;5011800;28;20026;-69
2022/08/30 11:35:48;;;;;;;3.42;1.63;;;23.50;92.80;;;;;;5013364;28;20087;-69
2022/08/30 11:38:19;;;;;;;2.75;1.50;;;23.50;92.70;;;;;;5020957;28;20033;-69
2022/08/30 11:40:54;;;;;;;2.78;1.77;;;23.60;92.40;;;;;;5046635;28;20033;-69
2022/08/30 11:43:37;;;;;;;3.03;1.40;;;23.60;92.10;;;;;;5041575;28;20037;-69
2022/08/30 11:46:27;;;;;;;3.03;1.50;;;23.50;91.70;;;;;;5031295;28;20516;-69
2022/08/30 11:49:04;;;;;;;2.53;1.55;;;23.50;92.00;;;;;;5016908;28;20120;-70
2022/08/30 11:51:40;;;;;;;2.92;1.55;;;23.40;91.50;;;;;;5028447;28;20091;-70
2022/08/30 11:54:20;;;;;;;2.90;1.90;;;23.50;91.80;;;;;;5011263;28;20760;-69
2022/08/30 11:56:56;;;;;;;2.70;1.70;;;23.40;92.20;;;;;;5028999;28;20037;-69
2022/08/30 11:59:52;;;;;;;3.05;1.60;;;23.50;91.90;;;;;;5028694;28;20091;-69
2022/08/30 12:02:43;;;;;;;;;;;23.60;91.70;;;;;;4993884;28;20037;-69
2022/08/30 12:05:41;;;;;;;1.83;1.30;;;23.60;92.00;;;;;;5001261;28;19909;-69
2022/08/30 12:08:19;;;;;;;1.55;1.35;;;23.60;92.20;;;;;;5010901;28;20477;-69
2022/08/30 12:11:10;;;;;;;2.60;1.35;;;23.70;91.60;;;;;;5025966;28;20160;-69
2022/08/30 12:13:35;;;;;;;1.77;1.33;;;23.70;91.20;;;;;;5001691;28;20176;-69
2022/08/30 12:16:11;;;;;;;3.70;1.95;;;23.70;90.90;;;;;;5030522;28;20042;-69
2022/08/30 12:18:44;;;;;;;1.65;1.20;;;23.70;91.10;;;;;;5029829;28;20022;-70
2022/08/30 12:21:19;;;;;;;1.88;1.33;;;23.70;90.50;;;;;;5031157;28;20036;-70
2022/08/30 12:23:47;;;;;;;2.22;1.50;;;23.60;91.00;;;;;;5030582;28;20021;-69
2022/08/30 12:26:38;;;;;;;1.70;1.40;;;23.60;91.30;;;;;;5033562;28;20034;-70
2022/08/30 12:29:25;;;;;;;2.15;1.45;;;23.50;91.20;;;;;;5029237;28;20069;-69
2022/08/30 12:31:55;;;;;;;3.08;1.50;;;23.50;91.40;;;;;;5017491;28;20033;-69
2022/08/30 12:34:34;;;;;;;4.45;1.40;;;23.50;91.50;;;;;;5034619;28;20086;-69
2022/08/30 12:37:06;;;;;;;3.50;1.80;;;23.50;91.60;;;;;;5035052;28;20025;-69
2022/08/30 12:39:37;;;;;;;2.58;1.73;;;23.60;91.40;;;;;;5034055;28;20112;-69
2022/08/30 12:42:25;;;;;;;2.20;1.30;;;23.70;91.20;;;;;;5028202;28;20037;-69
2022/08/30 12:44:56;;;;;;;2.65;1.52;;;23.80;91.40;;;;;;5028783;28;20041;-68
2022/08/30 12:47:40;;;;;;;2.65;1.42;;;23.90;91.10;;;;;;5024526;28;20038;-69
2022/08/30 12:50:08;;;;;;;2.67;1.33;;;24.00;90.80;;;;;;5029480;28;20025;-68
2022/08/30 12:52:38;;;;;;;3.67;1.50;;;24.00;90.50;;;;;;5034695;28;20052;-69
2022/08/30 12:55:21;;;;;;;2.33;1.20;;;24.10;90.50;;;;;;5014363;28;20034;-69
2022/08/30 12:58:08;;;;;;;2.60;1.52;;;24.20;90.20;;;;;;5034003;28;20025;-69
2022/08/30 13:00:38;;;;;;;1.83;1.33;;;24.20;89.30;;;;;;5034745;28;20116;-69
2022/08/30 13:03:32;;;;;;;2.50;1.35;;;24.10;89.70;;;;;;5023475;28;20021;-69
2022/08/30 13:05:58;;;;;;;1.40;1.17;;;24.20;90.10;;;;;;5034451;28;20033;-69
2022/08/30 13:08:44;;;;;;;3.22;1.65;;;24.30;90.60;;;;;;5034218;28;20026;-68
2022/08/30 13:11:23;;;;;;;2.03;1.60;;;24.40;89.50;;;;;;5015954;28;20037;-70